Rives, Missouri
Current Conditions -  °F | °C
As of 6:04 PM on Monday 22 Dec 2014 (Local Time) from KHKA Reporting Station
Light Rain Light Rain  
Wind Chill: 54°   Ceiling: 1400
Heat Index: 54°   Visibility: 6mi
Dew Point: 53°   Wind: 9mph
Humidity: 97%   Direction: 170°S
Pressure: 29.62"   Gusts: NA
Location:  36.09°N, 90.01°W
Report Text: KHKA 230004Z AUTO 17008KT 6SM -RA BR BKN014 OVC023 12/12 A2962 RMK AO2 P0000 T01220117
Loading
Personal Weather Stations






























Interactive Weather Map New forecast layout! Learn more

10-Day Weather Forecast

Advertisements
Track Severe Weather on mobile